Terminal Aerodrome Forecast
Issued by NWS Wilmington, OH

Current Version | Previous Version | Graphics & Text | Print | Product List | Glossary On
Versions: 1 2 3 4 5 6 7 8 9 10 11 12 13 14 15 16
000
FTUS41 KILN 272300
TAFCMH
TAF
KCMH 272340Z 2800/2824 20010KT P6SM BKN200
     FM281100 21012KT P6SM SCT040 BKN120
     FM281600 22012G22KT P6SM -SHRA VCTS OVC035CB
     FM281900 25013G23KT P6SM VCSH OVC022=

USA.gov is the U.S. government's official web portal to all federal, state and local government web resources and services.